Walter — WDF2436 — position and weather

sailwx.info

Track history (hours):
 
Tides and Currents Weather Stations Pressure Air Temp Water Temp Dewpoint Dewpoint Depression Visibility Wind Speed Wind Dir Waves Ship Positions

Walter

Owner: Enterprise Marine Services, LLC, San Antonio, TX. More information available from US FCC via Universal Licensing System and Coast Guard Vessel Documentation Center.

Last reported at 2017-Dec-16 09:56 UTC. Time now 2017-Dec-16 11:15 UTC.
Position N 29°47' W 095°05'.

Length 204 m; draft 3.2 m.

Type: . MMSI: 367004080.

Date/timePositionNaut miles runAvg speedWind from/ knotsBaromVisibWave heightAir tempDewpointWater temp
2017-Dec-16 09:56N 29°47' W 095°05'0 0.0
2017-Dec-16 05:02N 29°47' W 095°05'0 0.2
2017-Dec-16 04:55N 29°47' W 095°05'1 1.3
2017-Dec-16 04:29N 29°47' W 095°04'2 1.3
2017-Dec-16 02:38N 29°46' W 095°06'0 2.6
2017-Dec-16 02:30N 29°45' W 095°06'2 1.7
2017-Dec-16 01:20N 29°47' W 095°05'1 1.1
2017-Dec-16 00:49N 29°47' W 095°04'1 4.2
2017-Dec-16 00:30N 29°46' W 095°05'3 6.8
2017-Dec-16 00:00N 29°44' W 095°01'3 6.7
2017-Dec-15 23:30N 29°41' W 094°59'3 5.7
2017-Dec-15 23:00N 29°38' W 094°58'4 8.1
2017-Dec-15 22:30N 29°35' W 094°56'4 7.2
2017-Dec-15 22:00N 29°32' W 094°54'1 0.0
2017-Dec-14 17:57N 29°32' W 094°54'2 5.0
2017-Dec-14 17:30N 29°34' W 094°56'3 4.5
2017-Dec-14 16:54N 29°36' W 094°57'2 5.7
2017-Dec-14 16:29N 29°39' W 094°58'3 6.1
2017-Dec-14 16:00N 29°41' W 094°59'7 5.3
2017-Dec-14 14:45N 29°46' W 095°05'0 1.5
2017-Dec-14 14:30N 29°46' W 095°05'0 0.0
2017-Dec-14 12:56N 29°46' W 095°05'0 0.5
2017-Dec-14 12:18N 29°46' W 095°05'1 4.2
2017-Dec-14 12:00N 29°45' W 095°04'1 1.7
2017-Dec-14 11:13N 29°44' W 095°03'0 0.1
2017-Dec-14 11:01N 29°44' W 095°03'0 0.0
2017-Dec-14 10:30N 29°44' W 095°03'0 0.0
2017-Dec-14 09:43N 29°44' W 095°03'0 0.0
2017-Dec-14 09:28N 29°44' W 095°03'0 0.0
2017-Dec-14 08:55N 29°44' W 095°03'0 0.0
2017-Dec-14 08:28N 29°44' W 095°03'0 0.0
2017-Dec-14 07:55N 29°44' W 095°03'0 0.0
2017-Dec-14 07:25N 29°44' W 095°03'0 0.0
2017-Dec-14 06:52N 29°44' W 095°03'0 0.0
2017-Dec-14 06:28N 29°44' W 095°03'0 0.0
2017-Dec-14 05:58N 29°44' W 095°03'0 0.0
2017-Dec-14 05:22N 29°44' W 095°03'0 0.0
2017-Dec-14 04:55N 29°44' W 095°03'0 0.0
2017-Dec-14 04:22N 29°44' W 095°03'0 0.0
2017-Dec-14 03:58N 29°44' W 095°03'0 0.0
2017-Dec-14 03:22N 29°44' W 095°03'0 0.0
2017-Dec-14 02:58N 29°44' W 095°03'0 0.0
2017-Dec-14 02:28N 29°44' W 095°03'0 0.0
2017-Dec-14 01:58N 29°44' W 095°03'0 0.0
2017-Dec-14 01:22N 29°44' W 095°03'0 0.0
2017-Dec-14 00:58N 29°44' W 095°03'0 0.0
2017-Dec-14 00:28N 29°44' W 095°03'0 0.0
2017-Dec-13 13:19N 29°44' W 095°03'0 0.0
2017-Dec-13 12:52N 29°44' W 095°03'0 0.0
2017-Dec-13 11:37N 29°44' W 095°03'3 4.1
2017-Dec-13 10:51N 29°47' W 095°05'1 1.3
2017-Dec-13 10:24N 29°47' W 095°05'0 0.2
2017-Dec-13 09:59N 29°47' W 095°05'0 0.1
2017-Dec-13 09:25N 29°47' W 095°05'0 0.0
2017-Dec-13 02:52N 29°47' W 095°05'0 0.0
2017-Dec-13 02:22N 29°47' W 095°05'0 0.0
2017-Dec-13 01:41N 29°47' W 095°05'0 0.0
2017-Dec-12 22:10N 29°47' W 095°05'0 0.0
2017-Dec-12 13:27N 29°47' W 095°05'2 1.5
2017-Dec-12 12:20N 29°46' W 095°04'2 6.3
2017-Dec-12 12:00N 29°44' W 095°03'3 5.5
2017-Dec-12 11:30N 29°42' W 095°01'2 4.9
2017-Dec-12 11:00N 29°40' W 094°59'3 7.0
2017-Dec-12 10:30N 29°37' W 094°57'4 7.3
2017-Dec-12 10:00N 29°34' W 094°55'4 7.9
2017-Dec-12 09:30N 29°31' W 094°53'7 8.1
2017-Dec-12 08:41N 29°25' W 094°49'2 8.3
2017-Dec-12 08:30N 29°23' W 094°49'71 4.8
2017-Dec-11 17:41N 30°04' W 093°41'1 5.9
2017-Dec-11 17:30N 30°04' W 093°40'3 5.3
2017-Dec-11 17:00N 30°04' W 093°37'3 5.5
2017-Dec-11 16:30N 30°04' W 093°33'3 5.8
2017-Dec-11 16:00N 30°04' W 093°30'3 5.9
2017-Dec-11 15:30N 30°04' W 093°27'5 5.3
2017-Dec-11 14:29N 30°04' W 093°20'2 5.0
2017-Dec-11 14:00N 30°06' W 093°19'2 3.9
2017-Dec-11 13:30N 30°05' W 093°17'1 1.1
2017-Dec-11 13:00N 30°04' W 093°16'0 0.0
2017-Dec-11 12:30N 30°04' W 093°16'0 0.0
2017-Dec-11 12:00N 30°04' W 093°16'1 2.3
2017-Dec-11 11:30N 30°03' W 093°16'3 5.1
2017-Dec-11 11:00N 30°01' W 093°14'3 5.3
2017-Dec-11 10:30N 29°59' W 093°13'3 5.9
2017-Dec-11 10:00N 29°57' W 093°10'3 5.2
2017-Dec-11 09:30N 29°56' W 093°07'3 6.1
2017-Dec-11 09:00N 29°56' W 093°04'33 5.5
2017-Dec-11 03:04N 29°53' W 092°26'2 6.4
2017-Dec-11 02:47N 29°53' W 092°24'2 5.8
2017-Dec-11 02:30N 29°52' W 092°23'3 5.2
2017-Dec-11 02:00N 29°51' W 092°21'2 4.6
2017-Dec-11 01:30N 29°50' W 092°18'2 4.6
2017-Dec-11 01:00N 29°49' W 092°16'3 5.0
2017-Dec-11 00:30N 29°48' W 092°13'2 4.1
2017-Dec-11 00:00N 29°47' W 092°11'2 4.1
2017-Dec-10 23:30N 29°47' W 092°09'3 5.3
2017-Dec-10 23:00N 29°48' W 092°06'3 5.8
2017-Dec-10 22:30N 29°49' W 092°03'65 3.5
2017-Dec-10 03:58N 29°32' W 090°51'3 6.1
2017-Dec-10 03:30N 29°32' W 090°48'3 5.2
2017-Dec-10 03:00N 29°33' W 090°45'2 3.9
2017-Dec-10 02:30N 29°34' W 090°43'2 3.8
2017-Dec-10 02:00N 29°36' W 090°43'1 2.3
2017-Dec-10 01:30N 29°37' W 090°41'0 0.0
2017-Dec-10 01:00N 29°37' W 090°41'1 2.0
2017-Dec-10 00:30N 29°36' W 090°40'2 3.9
2017-Dec-10 00:00N 29°35' W 090°38'2 4.9
2017-Dec-09 23:30N 29°35' W 090°36'1 1.7
2017-Dec-09 23:00N 29°34' W 090°35'  
2017-Dec-07 02:58N 29°38' W 090°21'3 5.4
2017-Dec-07 02:29N 29°35' W 090°22'2 3.8
2017-Dec-07 01:58N 29°34' W 090°23'2 0.6
2017-Dec-06 21:37N 29°33' W 090°26'0 2.9
2017-Dec-06 21:31N 29°33' W 090°26'2 4.8
2017-Dec-06 21:01N 29°34' W 090°29'  
Track history (hours):
 
Tides and Currents Weather Stations Pressure Air Temp Water Temp Dewpoint Dewpoint Depression Visibility Wind Speed Wind Dir Waves Ship Positions

Walter

Owner: Enterprise Marine Services, LLC, San Antonio, TX. More information available from US FCC via Universal Licensing System and Coast Guard Vessel Documentation Center.

Last reported at 2017-Dec-16 09:56 UTC. Time now 2017-Dec-16 11:15 UTC.
Position N 29°47' W 095°05'.

Length 204 m; draft 3.2 m.

Type: . MMSI: 367004080.

Date/timePositionNaut miles runAvg speedWind from/ knotsBaromVisibWave heightAir tempDewpointWater temp
2017-Dec-16 09:56N 29°47' W 095°05'0 0.0
2017-Dec-16 05:02N 29°47' W 095°05'0 0.2
2017-Dec-16 04:55N 29°47' W 095°05'1 1.3
2017-Dec-16 04:29N 29°47' W 095°04'2 1.3
2017-Dec-16 02:38N 29°46' W 095°06'0 2.6
2017-Dec-16 02:30N 29°45' W 095°06'2 1.7
2017-Dec-16 01:20N 29°47' W 095°05'1 1.1
2017-Dec-16 00:49N 29°47' W 095°04'1 4.2
2017-Dec-16 00:30N 29°46' W 095°05'3 6.8
2017-Dec-16 00:00N 29°44' W 095°01'3 6.7
2017-Dec-15 23:30N 29°41' W 094°59'3 5.7
2017-Dec-15 23:00N 29°38' W 094°58'4 8.1
2017-Dec-15 22:30N 29°35' W 094°56'4 7.2
2017-Dec-15 22:00N 29°32' W 094°54'1 0.0
2017-Dec-14 17:57N 29°32' W 094°54'2 5.0
2017-Dec-14 17:30N 29°34' W 094°56'3 4.5
2017-Dec-14 16:54N 29°36' W 094°57'2 5.7
2017-Dec-14 16:29N 29°39' W 094°58'3 6.1
2017-Dec-14 16:00N 29°41' W 094°59'7 5.3
2017-Dec-14 14:45N 29°46' W 095°05'0 1.5
2017-Dec-14 14:30N 29°46' W 095°05'0 0.0
2017-Dec-14 12:56N 29°46' W 095°05'0 0.5
2017-Dec-14 12:18N 29°46' W 095°05'1 4.2
2017-Dec-14 12:00N 29°45' W 095°04'1 1.7
2017-Dec-14 11:13N 29°44' W 095°03'0 0.1
2017-Dec-14 11:01N 29°44' W 095°03'0 0.0
2017-Dec-14 10:30N 29°44' W 095°03'0 0.0
2017-Dec-14 09:43N 29°44' W 095°03'0 0.0
2017-Dec-14 09:28N 29°44' W 095°03'0 0.0
2017-Dec-14 08:55N 29°44' W 095°03'0 0.0
2017-Dec-14 08:28N 29°44' W 095°03'0 0.0
2017-Dec-14 07:55N 29°44' W 095°03'0 0.0
2017-Dec-14 07:25N 29°44' W 095°03'0 0.0
2017-Dec-14 06:52N 29°44' W 095°03'0 0.0
2017-Dec-14 06:28N 29°44' W 095°03'0 0.0
2017-Dec-14 05:58N 29°44' W 095°03'0 0.0
2017-Dec-14 05:22N 29°44' W 095°03'0 0.0
2017-Dec-14 04:55N 29°44' W 095°03'0 0.0
2017-Dec-14 04:22N 29°44' W 095°03'0 0.0
2017-Dec-14 03:58N 29°44' W 095°03'0 0.0
2017-Dec-14 03:22N 29°44' W 095°03'0 0.0
2017-Dec-14 02:58N 29°44' W 095°03'0 0.0
2017-Dec-14 02:28N 29°44' W 095°03'0 0.0
2017-Dec-14 01:58N 29°44' W 095°03'0 0.0
2017-Dec-14 01:22N 29°44' W 095°03'0 0.0
2017-Dec-14 00:58N 29°44' W 095°03'0 0.0
2017-Dec-14 00:28N 29°44' W 095°03'0 0.0
2017-Dec-13 13:19N 29°44' W 095°03'0 0.0
2017-Dec-13 12:52N 29°44' W 095°03'0 0.0
2017-Dec-13 11:37N 29°44' W 095°03'3 4.1
2017-Dec-13 10:51N 29°47' W 095°05'1 1.3
2017-Dec-13 10:24N 29°47' W 095°05'0 0.2
2017-Dec-13 09:59N 29°47' W 095°05'0 0.1
2017-Dec-13 09:25N 29°47' W 095°05'0 0.0
2017-Dec-13 02:52N 29°47' W 095°05'0 0.0
2017-Dec-13 02:22N 29°47' W 095°05'0 0.0
2017-Dec-13 01:41N 29°47' W 095°05'0 0.0
2017-Dec-12 22:10N 29°47' W 095°05'0 0.0
2017-Dec-12 13:27N 29°47' W 095°05'2 1.5
2017-Dec-12 12:20N 29°46' W 095°04'2 6.3
2017-Dec-12 12:00N 29°44' W 095°03'3 5.5
2017-Dec-12 11:30N 29°42' W 095°01'2 4.9
2017-Dec-12 11:00N 29°40' W 094°59'3 7.0
2017-Dec-12 10:30N 29°37' W 094°57'4 7.3
2017-Dec-12 10:00N 29°34' W 094°55'4 7.9
2017-Dec-12 09:30N 29°31' W 094°53'7 8.1
2017-Dec-12 08:41N 29°25' W 094°49'2 8.3
2017-Dec-12 08:30N 29°23' W 094°49'71 4.8
2017-Dec-11 17:41N 30°04' W 093°41'1 5.9
2017-Dec-11 17:30N 30°04' W 093°40'3 5.3
2017-Dec-11 17:00N 30°04' W 093°37'3 5.5
2017-Dec-11 16:30N 30°04' W 093°33'3 5.8
2017-Dec-11 16:00N 30°04' W 093°30'3 5.9
2017-Dec-11 15:30N 30°04' W 093°27'5 5.3
2017-Dec-11 14:29N 30°04' W 093°20'2 5.0
2017-Dec-11 14:00N 30°06' W 093°19'2 3.9
2017-Dec-11 13:30N 30°05' W 093°17'1 1.1
2017-Dec-11 13:00N 30°04' W 093°16'0 0.0
2017-Dec-11 12:30N 30°04' W 093°16'0 0.0
2017-Dec-11 12:00N 30°04' W 093°16'1 2.3
2017-Dec-11 11:30N 30°03' W 093°16'3 5.1
2017-Dec-11 11:00N 30°01' W 093°14'3 5.3
2017-Dec-11 10:30N 29°59' W 093°13'3 5.9
2017-Dec-11 10:00N 29°57' W 093°10'3 5.2
2017-Dec-11 09:30N 29°56' W 093°07'3 6.1
2017-Dec-11 09:00N 29°56' W 093°04'33 5.5
2017-Dec-11 03:04N 29°53' W 092°26'2 6.4
2017-Dec-11 02:47N 29°53' W 092°24'2 5.8
2017-Dec-11 02:30N 29°52' W 092°23'3 5.2
2017-Dec-11 02:00N 29°51' W 092°21'2 4.6
2017-Dec-11 01:30N 29°50' W 092°18'2 4.6
2017-Dec-11 01:00N 29°49' W 092°16'3 5.0
2017-Dec-11 00:30N 29°48' W 092°13'2 4.1
2017-Dec-11 00:00N 29°47' W 092°11'2 4.1
2017-Dec-10 23:30N 29°47' W 092°09'3 5.3
2017-Dec-10 23:00N 29°48' W 092°06'3 5.8
2017-Dec-10 22:30N 29°49' W 092°03'65 3.5
2017-Dec-10 03:58N 29°32' W 090°51'3 6.1
2017-Dec-10 03:30N 29°32' W 090°48'3 5.2
2017-Dec-10 03:00N 29°33' W 090°45'2 3.9
2017-Dec-10 02:30N 29°34' W 090°43'2 3.8
2017-Dec-10 02:00N 29°36' W 090°43'1 2.3
2017-Dec-10 01:30N 29°37' W 090°41'0 0.0
2017-Dec-10 01:00N 29°37' W 090°41'1 2.0
2017-Dec-10 00:30N 29°36' W 090°40'2 3.9
2017-Dec-10 00:00N 29°35' W 090°38'2 4.9
2017-Dec-09 23:30N 29°35' W 090°36'1 1.7
2017-Dec-09 23:00N 29°34' W 090°35'  
2017-Dec-07 02:58N 29°38' W 090°21'3 5.4
2017-Dec-07 02:29N 29°35' W 090°22'2 3.8
2017-Dec-07 01:58N 29°34' W 090°23'2 0.6
2017-Dec-06 21:37N 29°33' W 090°26'0 2.9
2017-Dec-06 21:31N 29°33' W 090°26'2 4.8
2017-Dec-06 21:01N 29°34' W 090°29'  

Dump ship's entire track history